createdAt,value
2017-12-22T00:00:47.605Z,97.31
2017-12-22T00:03:13.851Z,97.32
2017-12-22T00:05:40.307Z,97.36
2017-12-22T00:08:07.840Z,97.37
2017-12-22T00:10:35.492Z,97.28
2017-12-22T00:13:04.032Z,97.37
2017-12-22T00:15:47.525Z,97.32
2017-12-22T00:18:15.215Z,97.28
2017-12-22T00:20:42.011Z,97.28
2017-12-22T00:23:09.292Z,97.40
2017-12-22T00:25:36.519Z,97.40
2017-12-22T00:28:04.111Z,97.53
2017-12-22T00:30:31.273Z,97.40
2017-12-22T00:32:58.099Z,97.30
2017-12-22T00:35:24.956Z,97.27
2017-12-22T00:37:51.553Z,97.29
2017-12-22T00:40:18.677Z,97.42
2017-12-22T00:42:45.977Z,97.53
2017-12-22T00:45:13.536Z,97.35
2017-12-22T00:47:40.330Z,97.39
2017-12-22T00:50:08.012Z,97.34
2017-12-22T00:52:34.878Z,97.23
2017-12-22T00:55:02.005Z,97.14
2017-12-22T00:57:28.856Z,97.17
2017-12-22T00:59:55.813Z,96.99
2017-12-22T01:02:24.246Z,96.93
2017-12-22T01:04:50.754Z,96.82
2017-12-22T01:07:18.262Z,96.74
2017-12-22T01:09:46.360Z,96.81
2017-12-22T01:12:14.686Z,96.89
2017-12-22T01:14:41.886Z,96.68
2017-12-22T01:17:15.870Z,96.87
2017-12-22T01:19:42.535Z,97.01
2017-12-22T01:22:09.825Z,97.18
2017-12-22T01:24:37.210Z,97.29
2017-12-22T01:27:03.724Z,97.20
2017-12-22T01:29:30.854Z,97.23
2017-12-22T01:31:58.041Z,97.11
2017-12-22T01:34:25.762Z,97.07
2017-12-22T01:36:54.679Z,96.90
2017-12-22T01:39:21.805Z,96.93
2017-12-22T01:41:49.230Z,97.25
2017-12-22T01:44:15.847Z,97.49
2017-12-22T01:46:43.734Z,97.67
2017-12-22T01:49:10.363Z,97.75
2017-12-22T01:51:37.089Z,97.93
2017-12-22T01:54:04.337Z,98.15
2017-12-22T01:56:31.033Z,98.35
2017-12-22T01:58:57.878Z,98.52
2017-12-22T02:01:24.905Z,98.59
2017-12-22T02:03:51.986Z,98.63
2017-12-22T02:06:19.722Z,98.66
2017-12-22T02:08:46.739Z,98.59
2017-12-22T02:11:13.905Z,98.59
2017-12-22T02:13:40.617Z,98.69
2017-12-22T02:16:07.636Z,98.69
2017-12-22T02:18:34.102Z,98.58
2017-12-22T02:21:00.652Z,98.55
2017-12-22T02:23:27.450Z,98.52
2017-12-22T02:25:54.419Z,98.58
2017-12-22T02:28:25.124Z,98.59
2017-12-22T02:30:51.878Z,98.59
2017-12-22T02:33:19.671Z,98.57
2017-12-22T02:35:47.275Z,98.60
2017-12-22T02:38:14.364Z,98.67
2017-12-22T02:40:41.375Z,98.73
2017-12-22T02:43:08.040Z,98.73
2017-12-22T02:45:35.396Z,98.70
2017-12-22T02:48:02.052Z,98.73
2017-12-22T02:50:29.470Z,98.73
2017-12-22T02:52:56.342Z,98.80
2017-12-22T02:55:23.018Z,98.88
2017-12-22T02:57:50.037Z,98.96
2017-12-22T03:00:16.655Z,99.05
2017-12-22T03:02:43.715Z,99.04
2017-12-22T03:05:11.085Z,99.09
2017-12-22T03:07:38.745Z,99.18
2017-12-22T03:10:06.312Z,99.16
2017-12-22T03:12:33.241Z,99.21
2017-12-22T03:14:59.901Z,99.21
2017-12-22T03:17:27.400Z,99.22
2017-12-22T03:19:54.915Z,99.24
2017-12-22T03:22:21.513Z,99.24
2017-12-22T03:24:48.868Z,99.24
2017-12-22T03:27:20.610Z,99.25
2017-12-22T03:29:47.110Z,99.21
2017-12-22T03:32:13.886Z,99.26
2017-12-22T03:34:40.692Z,99.19
2017-12-22T03:37:07.060Z,99.22
2017-12-22T03:39:33.864Z,99.24
2017-12-22T03:42:01.182Z,99.24
2017-12-22T03:44:27.972Z,99.26
2017-12-22T03:46:56.186Z,99.27
2017-12-22T03:49:22.704Z,99.27
2017-12-22T03:51:49.300Z,99.30
2017-12-22T03:54:20.074Z,99.31
2017-12-22T03:56:46.737Z,99.29
2017-12-22T03:59:13.370Z,99.37
2017-12-22T04:01:40.452Z,99.36
2017-12-22T04:04:07.381Z,99.39
2017-12-22T04:06:34.428Z,99.44
2017-12-22T04:09:02.238Z,99.45
2017-12-22T04:11:28.799Z,99.46
2017-12-22T04:13:56.435Z,99.42
2017-12-22T04:16:23.027Z,99.43
2017-12-22T04:18:50.084Z,99.28
2017-12-22T04:21:17.651Z,99.33
2017-12-22T04:23:44.252Z,99.38
2017-12-22T04:26:12.221Z,99.30
2017-12-22T04:28:38.981Z,99.30
2017-12-22T04:31:05.769Z,99.32
2017-12-22T04:33:32.615Z,99.32
2017-12-22T04:35:59.371Z,99.33
2017-12-22T04:38:26.549Z,99.35
2017-12-22T04:40:53.041Z,99.29
2017-12-22T04:43:21.163Z,99.32
2017-12-22T04:45:48.843Z,99.35
2017-12-22T04:48:16.497Z,99.39
2017-12-22T04:50:43.447Z,99.39
2017-12-22T04:53:11.205Z,99.42
2017-12-22T04:55:37.700Z,99.43
2017-12-22T04:58:05.680Z,99.43
2017-12-22T05:00:32.657Z,99.46
2017-12-22T05:03:19.490Z,99.49
2017-12-22T05:05:47.893Z,99.56
2017-12-22T05:08:15.107Z,99.57
2017-12-22T05:10:41.846Z,99.61
2017-12-22T05:13:09.785Z,99.57
2017-12-22T05:15:36.371Z,99.59
2017-12-22T05:18:02.994Z,99.67
2017-12-22T05:20:41.858Z,99.72
2017-12-22T05:23:10.928Z,99.75
2017-12-22T05:25:38.508Z,99.65
2017-12-22T05:28:06.298Z,99.73
2017-12-22T05:30:34.089Z,99.74
2017-12-22T05:33:00.960Z,99.72
2017-12-22T05:35:31.732Z,99.69
2017-12-22T05:38:01.358Z,99.66
2017-12-22T05:40:28.874Z,99.53
2017-12-22T05:42:55.664Z,99.52
2017-12-22T05:45:23.002Z,99.44
2017-12-22T05:47:49.927Z,99.50
2017-12-22T05:50:19.167Z,99.53
2017-12-22T05:52:46.465Z,99.55
2017-12-22T05:55:15.235Z,99.46
2017-12-22T05:57:44.147Z,99.52
2017-12-22T06:00:12.725Z,99.48
2017-12-22T06:02:39.219Z,99.53
2017-12-22T06:05:05.904Z,99.52
2017-12-22T06:07:34.605Z,99.47
2017-12-22T06:10:01.648Z,99.52
2017-12-22T06:12:28.133Z,99.49
2017-12-22T06:14:54.811Z,99.47
2017-12-22T06:17:22.015Z,99.44
2017-12-22T06:19:48.725Z,99.39
2017-12-22T06:22:15.423Z,99.42
2017-12-22T06:24:45.585Z,99.41
2017-12-22T06:27:12.565Z,99.51
2017-12-22T06:29:39.796Z,99.54
2017-12-22T06:32:07.343Z,99.51
2017-12-22T06:34:33.985Z,99.56
2017-12-22T06:37:00.463Z,99.58
2017-12-22T06:39:27.723Z,99.59
2017-12-22T06:41:54.181Z,99.56
2017-12-22T06:44:20.957Z,99.63
2017-12-22T06:46:48.004Z,99.59
2017-12-22T06:49:15.353Z,99.63
2017-12-22T06:51:42.102Z,99.69
2017-12-22T06:54:09.030Z,99.72
2017-12-22T06:56:35.588Z,99.69
2017-12-22T06:59:02.603Z,99.64
2017-12-22T07:01:30.864Z,99.69
2017-12-22T07:03:57.494Z,99.63
2017-12-22T07:06:23.992Z,99.62
2017-12-22T07:08:50.690Z,99.59
2017-12-22T07:11:17.394Z,99.48
2017-12-22T07:13:44.100Z,99.45
2017-12-22T07:16:10.692Z,99.46
2017-12-22T07:18:38.336Z,99.45
2017-12-22T07:21:04.746Z,99.37
2017-12-22T07:23:31.032Z,99.31
2017-12-22T07:25:57.212Z,99.32
2017-12-22T07:28:23.462Z,99.29
2017-12-22T07:30:49.586Z,99.22
2017-12-22T07:33:16.230Z,99.15
2017-12-22T07:35:42.463Z,99.15
2017-12-22T07:38:08.985Z,98.98
2017-12-22T07:40:35.815Z,98.93
2017-12-22T07:43:02.426Z,98.86
2017-12-22T07:45:28.827Z,98.75
2017-12-22T07:47:55.459Z,98.53
2017-12-22T07:50:21.968Z,98.30
2017-12-22T07:52:48.567Z,97.91
2017-12-22T07:55:15.073Z,97.74
2017-12-22T07:57:41.553Z,97.29
2017-12-22T08:00:08.013Z,97.05
2017-12-22T08:02:34.721Z,96.69
2017-12-22T08:05:01.185Z,96.65
2017-12-22T08:07:27.576Z,96.64
2017-12-22T08:09:54.303Z,96.36
2017-12-22T08:12:20.817Z,96.24
2017-12-22T08:14:47.180Z,96.25
2017-12-22T08:17:13.863Z,96.12
2017-12-22T08:19:40.558Z,96.17
2017-12-22T08:22:07.067Z,95.98
2017-12-22T08:24:33.478Z,95.82
2017-12-22T08:26:59.916Z,95.80
2017-12-22T08:29:26.508Z,95.99
2017-12-22T08:31:55.150Z,96.09
2017-12-22T08:34:21.592Z,96.15
2017-12-22T08:36:48.130Z,95.81
2017-12-22T08:39:14.598Z,95.88
2017-12-22T08:41:41.044Z,95.85
2017-12-22T08:44:07.686Z,95.67
2017-12-22T08:46:34.048Z,95.11
2017-12-22T08:49:00.509Z,93.99
2017-12-22T08:51:27.095Z,93.79
2017-12-22T08:53:53.466Z,93.62
2017-12-22T08:56:20.042Z,93.99
2017-12-22T08:58:46.502Z,94.45
2017-12-22T09:01:12.980Z,94.42
2017-12-22T09:03:39.460Z,94.44
2017-12-22T09:06:07.502Z,93.72
2017-12-22T09:08:34.186Z,93.18
2017-12-22T09:11:00.915Z,93.28
2017-12-22T09:13:27.473Z,93.34
2017-12-22T09:15:54.295Z,93.38
2017-12-22T09:18:23.740Z,93.86
2017-12-22T09:20:50.179Z,93.51
2017-12-22T09:23:16.633Z,93.60
2017-12-22T09:25:43.331Z,93.78
2017-12-22T09:28:10.254Z,94.07
2017-12-22T09:30:43.295Z,94.26
2017-12-22T09:33:10.607Z,93.86
2017-12-22T09:35:37.417Z,94.04
2017-12-22T09:38:05.821Z,94.18
2017-12-22T09:40:34.207Z,94.23
2017-12-22T09:43:00.898Z,94.41
2017-12-22T09:45:27.466Z,94.26
2017-12-22T09:47:54.177Z,94.07
2017-12-22T09:50:20.876Z,93.79
2017-12-22T09:52:48.948Z,93.72
2017-12-22T09:55:15.596Z,93.85
2017-12-22T09:57:42.595Z,93.79
2017-12-22T10:00:09.026Z,94.02
2017-12-22T10:02:35.342Z,93.82
2017-12-22T10:05:01.974Z,94.02
2017-12-22T10:07:28.370Z,94.02
2017-12-22T10:09:54.903Z,93.68
2017-12-22T10:12:21.526Z,93.99
2017-12-22T10:14:48.361Z,93.82
2017-12-22T10:17:14.770Z,94.13
2017-12-22T10:19:41.355Z,94.42
2017-12-22T10:22:07.808Z,94.33
2017-12-22T10:24:34.234Z,94.49
2017-12-22T10:27:00.900Z,94.67
2017-12-22T10:29:27.454Z,94.66
2017-12-22T10:31:53.975Z,94.72
2017-12-22T10:34:20.382Z,95.13
2017-12-22T10:36:46.799Z,95.39
2017-12-22T10:39:13.321Z,95.27
2017-12-22T10:41:39.749Z,95.23
2017-12-22T10:44:06.268Z,95.01
2017-12-22T10:46:32.679Z,94.70
2017-12-22T10:48:59.160Z,95.05
2017-12-22T10:51:25.631Z,94.22
2017-12-22T10:53:52.197Z,94.40
2017-12-22T10:56:18.882Z,93.67
2017-12-22T10:58:47.925Z,93.52
2017-12-22T11:01:14.623Z,93.95
2017-12-22T11:03:41.072Z,93.66
2017-12-22T11:06:07.803Z,93.78
2017-12-22T11:08:34.121Z,93.37
2017-12-22T11:11:00.291Z,92.76
2017-12-22T11:13:26.498Z,92.29
2017-12-22T11:15:52.672Z,92.07
2017-12-22T11:18:19.099Z,91.83
2017-12-22T11:20:45.183Z,92.03
2017-12-22T11:23:11.467Z,91.45
2017-12-22T11:25:37.898Z,91.71
2017-12-22T11:28:04.482Z,91.32
2017-12-22T11:30:30.790Z,91.61
2017-12-22T11:32:57.081Z,91.24
2017-12-22T11:35:23.256Z,91.21
2017-12-22T11:37:49.668Z,91.56
2017-12-22T11:40:15.927Z,91.95
2017-12-22T11:42:42.112Z,92.49
2017-12-22T11:45:08.410Z,92.23
2017-12-22T11:47:34.675Z,92.67
2017-12-22T11:50:00.942Z,92.83
2017-12-22T11:52:27.194Z,92.67
2017-12-22T11:54:53.528Z,92.78
2017-12-22T11:57:19.889Z,92.54
2017-12-22T11:59:45.932Z,92.35
2017-12-22T12:02:12.116Z,92.47
2017-12-22T12:04:38.211Z,92.00
2017-12-22T12:07:04.587Z,91.84
2017-12-22T12:09:30.841Z,91.30
2017-12-22T12:11:57.108Z,91.13
2017-12-22T12:14:23.336Z,90.85
2017-12-22T12:16:49.481Z,90.02
2017-12-22T12:19:15.763Z,89.63
2017-12-22T12:21:42.417Z,89.54
2017-12-22T12:24:08.773Z,90.35
2017-12-22T12:26:35.247Z,90.45
2017-12-22T12:29:01.543Z,90.15
2017-12-22T12:31:27.818Z,90.44
2017-12-22T12:33:54.241Z,90.79
2017-12-22T12:36:20.594Z,90.93
2017-12-22T12:38:47.094Z,90.72
2017-12-22T12:41:13.321Z,90.23
2017-12-22T12:43:39.735Z,90.24
2017-12-22T12:46:06.014Z,89.86
2017-12-22T12:48:32.368Z,90.15
2017-12-22T12:50:58.621Z,90.47
2017-12-22T12:53:24.925Z,90.37
2017-12-22T12:55:51.116Z,90.56
2017-12-22T12:58:17.566Z,90.80
2017-12-22T13:00:43.852Z,91.02
2017-12-22T13:03:10.248Z,90.99
2017-12-22T13:05:36.389Z,91.52
2017-12-22T13:08:02.573Z,91.45
2017-12-22T13:10:28.792Z,91.60
2017-12-22T13:12:54.914Z,91.02
2017-12-22T13:15:21.176Z,92.08
2017-12-22T13:17:47.238Z,91.95
2017-12-22T13:20:13.467Z,91.76
2017-12-22T13:22:39.572Z,92.59
2017-12-22T13:25:05.829Z,92.17
2017-12-22T13:27:32.048Z,92.79
2017-12-22T13:29:58.341Z,93.15
2017-12-22T13:32:24.776Z,93.48
2017-12-22T13:34:51.019Z,93.37
2017-12-22T13:37:17.328Z,93.25
2017-12-22T13:39:43.493Z,93.36
2017-12-22T13:42:10.236Z,94.09
2017-12-22T13:44:36.629Z,94.27
2017-12-22T13:47:03.013Z,94.75
2017-12-22T13:49:29.081Z,95.25
2017-12-22T13:51:55.214Z,95.79
2017-12-22T13:54:21.389Z,95.88
2017-12-22T13:56:47.517Z,95.89
2017-12-22T13:59:13.751Z,95.83
2017-12-22T14:01:39.978Z,95.84
2017-12-22T14:04:06.328Z,96.19
2017-12-22T14:06:32.789Z,96.18
2017-12-22T14:08:59.117Z,96.27
2017-12-22T14:11:25.664Z,96.25
2017-12-22T14:13:51.842Z,96.17
2017-12-22T14:16:18.335Z,96.01
2017-12-22T14:18:44.771Z,96.27
2017-12-22T14:21:10.954Z,96.33
2017-12-22T14:23:37.409Z,96.12
2017-12-22T14:26:03.733Z,95.82
2017-12-22T14:28:29.868Z,95.25
2017-12-22T14:30:56.147Z,95.12
2017-12-22T14:33:22.372Z,95.50
2017-12-22T14:35:48.578Z,95.59
2017-12-22T14:38:14.702Z,95.58
2017-12-22T14:40:40.904Z,95.66
2017-12-22T14:43:06.981Z,95.66
2017-12-22T14:45:33.319Z,95.98
2017-12-22T14:47:59.510Z,96.10
2017-12-22T14:50:25.636Z,96.30
2017-12-22T14:52:52.034Z,96.26
2017-12-22T14:55:18.420Z,96.25
2017-12-22T14:57:45.195Z,96.52
2017-12-22T15:00:11.417Z,96.60
2017-12-22T15:02:37.811Z,96.69
2017-12-22T15:05:05.309Z,96.64
2017-12-22T15:07:31.610Z,96.75
2017-12-22T15:09:58.445Z,96.75
2017-12-22T15:12:24.909Z,96.66
2017-12-22T15:14:50.956Z,96.61
2017-12-22T15:17:17.135Z,96.57
2017-12-22T15:19:43.659Z,96.77
2017-12-22T15:22:09.694Z,96.95
2017-12-22T15:24:35.815Z,97.00
2017-12-22T15:27:01.941Z,96.99
2017-12-22T15:29:28.135Z,97.23
2017-12-22T15:31:54.209Z,97.33
2017-12-22T15:34:20.257Z,97.38
2017-12-22T15:36:46.557Z,97.53
2017-12-22T15:39:12.776Z,97.40
2017-12-22T15:41:39.129Z,97.31
2017-12-22T15:44:05.304Z,97.26
2017-12-22T15:46:31.701Z,97.24
2017-12-22T15:48:57.826Z,97.22
2017-12-22T15:51:24.077Z,97.23
2017-12-22T15:53:50.450Z,97.23
2017-12-22T15:56:16.807Z,97.21
2017-12-22T15:58:42.874Z,97.10
2017-12-22T16:01:09.295Z,97.25
2017-12-22T16:03:35.423Z,97.49
2017-12-22T16:06:01.746Z,97.64
2017-12-22T16:08:28.133Z,97.71
2017-12-22T16:10:54.600Z,97.68
2017-12-22T16:13:21.872Z,97.65
2017-12-22T16:15:48.391Z,97.75
2017-12-22T16:18:15.748Z,97.80
2017-12-22T16:20:42.209Z,97.84
2017-12-22T16:23:08.998Z,97.90
2017-12-22T16:25:35.364Z,97.92
2017-12-22T16:28:01.992Z,97.97
2017-12-22T16:30:28.562Z,97.83
2017-12-22T16:32:54.745Z,97.95
2017-12-22T16:35:21.225Z,98.04
2017-12-22T16:37:47.403Z,98.11
2017-12-22T16:40:13.436Z,98.17
2017-12-22T16:42:45.511Z,98.15
2017-12-22T16:45:11.679Z,98.18
2017-12-22T16:47:38.075Z,98.17
2017-12-22T16:50:04.757Z,98.12
2017-12-22T16:52:31.064Z,98.16
2017-12-22T16:54:57.506Z,98.18
2017-12-22T16:57:24.358Z,98.17
2017-12-22T16:59:50.431Z,98.17
2017-12-22T17:02:16.640Z,98.14
2017-12-22T17:04:42.831Z,97.99
2017-12-22T17:07:09.369Z,98.02
2017-12-22T17:09:35.489Z,98.09
2017-12-22T17:12:01.919Z,98.20
2017-12-22T17:14:28.113Z,98.28
2017-12-22T17:16:54.234Z,98.26
2017-12-22T17:19:21.111Z,98.30
2017-12-22T17:21:47.291Z,98.33
2017-12-22T17:24:13.658Z,98.33
2017-12-22T17:26:40.345Z,98.35
2017-12-22T17:29:07.673Z,98.39
2017-12-22T17:31:33.835Z,98.32
2017-12-22T17:33:59.936Z,98.39
2017-12-22T17:36:26.138Z,98.44
2017-12-22T17:38:52.152Z,98.52
2017-12-22T17:41:18.373Z,98.57
2017-12-22T17:43:49.584Z,98.57
2017-12-22T17:46:22.590Z,98.56
2017-12-22T17:48:49.613Z,98.54
2017-12-22T17:51:16.081Z,98.58
2017-12-22T17:53:44.953Z,98.60
2017-12-22T17:56:13.031Z,98.60
2017-12-22T17:58:39.656Z,98.62
2017-12-22T18:01:06.473Z,98.61
2017-12-22T18:03:37.214Z,98.66
2017-12-22T18:06:03.988Z,98.77
2017-12-22T18:08:30.597Z,98.73
2017-12-22T18:10:57.264Z,98.74
2017-12-22T18:13:24.123Z,98.72
2017-12-22T18:15:50.767Z,98.82
2017-12-22T18:18:17.217Z,98.77
2017-12-22T18:20:43.744Z,98.78
2017-12-22T18:23:10.467Z,98.82
2017-12-22T18:25:38.231Z,98.81
2017-12-22T18:28:06.446Z,98.76
2017-12-22T18:30:33.015Z,98.76
2017-12-22T18:32:59.667Z,98.81
2017-12-22T18:35:26.486Z,98.86
2017-12-22T18:37:53.058Z,98.88
2017-12-22T18:40:19.904Z,98.84
2017-12-22T18:42:46.054Z,98.75
2017-12-22T18:45:12.149Z,98.82
2017-12-22T18:47:38.353Z,98.96
2017-12-22T18:50:04.622Z,99.04
2017-12-22T18:52:31.174Z,99.18
2017-12-22T18:55:06.567Z,99.28
2017-12-22T18:57:33.272Z,99.38
2017-12-22T18:59:59.502Z,99.46
2017-12-22T19:02:25.772Z,99.44
2017-12-22T19:04:52.356Z,99.44
2017-12-22T19:07:18.730Z,99.38
2017-12-22T19:09:45.040Z,99.31
2017-12-22T19:12:11.313Z,99.29
2017-12-22T19:14:39.955Z,99.30
2017-12-22T19:17:06.641Z,99.29
2017-12-22T19:19:33.497Z,99.23
2017-12-22T19:22:00.068Z,99.21
2017-12-22T19:24:26.602Z,99.18
2017-12-22T19:26:53.112Z,99.17
2017-12-22T19:29:19.568Z,99.15
2017-12-22T19:31:46.231Z,99.10
2017-12-22T19:34:12.746Z,98.96
2017-12-22T19:36:58.228Z,98.98
2017-12-22T19:39:24.861Z,99.08
2017-12-22T19:41:51.288Z,99.11
2017-12-22T19:44:17.601Z,99.17
2017-12-22T19:46:43.959Z,99.16
2017-12-22T19:49:10.444Z,99.16
2017-12-22T19:51:37.181Z,99.22
2017-12-22T19:54:03.635Z,99.23
2017-12-22T19:56:30.133Z,99.23
2017-12-22T19:58:56.593Z,99.24
2017-12-22T20:01:22.749Z,99.34
2017-12-22T20:03:49.014Z,99.32
2017-12-22T20:06:15.587Z,99.29
2017-12-22T20:08:41.726Z,99.30
2017-12-22T20:11:07.898Z,99.28
2017-12-22T20:13:35.188Z,99.23
2017-12-22T20:16:01.366Z,99.19
2017-12-22T20:18:27.508Z,99.26
2017-12-22T20:20:53.829Z,99.30
2017-12-22T20:23:20.108Z,99.35
2017-12-22T20:25:46.317Z,99.35
2017-12-22T20:28:12.563Z,99.40
2017-12-22T20:30:38.968Z,99.43
2017-12-22T20:33:05.189Z,99.52
2017-12-22T20:35:33.139Z,99.47
2017-12-22T20:37:59.667Z,99.53
2017-12-22T20:40:26.257Z,99.50
2017-12-22T20:42:53.135Z,99.43
2017-12-22T20:45:20.108Z,99.41
2017-12-22T20:47:46.703Z,99.42
2017-12-22T20:50:14.877Z,99.44
2017-12-22T20:52:42.846Z,99.40
2017-12-22T20:55:09.396Z,99.39
2017-12-22T20:57:36.425Z,99.46
2017-12-22T21:00:03.320Z,99.46
2017-12-22T21:02:29.590Z,99.37
2017-12-22T21:04:58.644Z,99.61
2017-12-22T21:07:25.095Z,99.71
2017-12-22T21:09:51.233Z,99.70
2017-12-22T21:12:17.554Z,99.72
2017-12-22T21:14:43.918Z,99.85
2017-12-22T21:17:10.328Z,99.92
2017-12-22T21:19:36.671Z,99.92
2017-12-22T21:22:03.411Z,100.00
2017-12-22T21:24:36.243Z,100.00
2017-12-22T21:27:02.631Z,99.98
2017-12-22T21:29:29.090Z,100.00
2017-12-22T21:31:55.531Z,100.00
2017-12-22T21:34:21.629Z,99.94
2017-12-22T21:36:48.189Z,99.93
2017-12-22T21:39:14.485Z,99.95
2017-12-22T21:41:40.895Z,99.95
2017-12-22T21:44:07.294Z,99.96
2017-12-22T21:46:33.684Z,99.95
2017-12-22T21:49:00.107Z,99.95
2017-12-22T21:51:26.346Z,99.89
2017-12-22T21:53:52.476Z,99.85
2017-12-22T21:56:18.600Z,99.84
2017-12-22T21:58:44.854Z,99.84
2017-12-22T22:01:11.131Z,99.87
2017-12-22T22:03:37.261Z,99.86
2017-12-22T22:06:03.369Z,99.83
2017-12-22T22:08:29.444Z,99.86
2017-12-22T22:10:55.574Z,99.83
2017-12-22T22:13:21.691Z,99.72
2017-12-22T22:15:47.829Z,99.74
2017-12-22T22:18:13.916Z,99.71
2017-12-22T22:20:40.055Z,99.64
2017-12-22T22:23:06.178Z,99.61
2017-12-22T22:25:32.322Z,99.57
2017-12-22T22:27:58.544Z,99.59
2017-12-22T22:30:24.767Z,99.53
2017-12-22T22:32:50.995Z,99.50
2017-12-22T22:35:17.224Z,99.48
2017-12-22T22:37:43.643Z,99.48
2017-12-22T22:40:10.614Z,99.49
2017-12-22T22:42:36.735Z,99.53
2017-12-22T22:45:02.860Z,99.51
2017-12-22T22:47:28.967Z,99.52
2017-12-22T22:49:55.102Z,99.64
2017-12-22T22:52:21.397Z,99.74
2017-12-22T22:54:47.675Z,99.80
2017-12-22T22:57:14.139Z,99.79
2017-12-22T22:59:40.246Z,99.95
2017-12-22T23:02:06.369Z,100.00
2017-12-22T23:04:32.504Z,100.00
2017-12-22T23:06:58.615Z,100.00
2017-12-22T23:09:24.748Z,100.00
2017-12-22T23:11:50.863Z,100.00
2017-12-22T23:14:16.992Z,100.00
2017-12-22T23:16:43.304Z,100.00
2017-12-22T23:19:09.432Z,100.00
2017-12-22T23:21:35.659Z,100.00
2017-12-22T23:24:01.794Z,100.00
2017-12-22T23:26:27.909Z,100.00
2017-12-22T23:28:54.040Z,100.00
2017-12-22T23:31:20.208Z,100.00
2017-12-22T23:33:46.296Z,100.00
2017-12-22T23:36:12.419Z,100.00
2017-12-22T23:38:38.458Z,100.00
2017-12-22T23:41:04.490Z,100.00
2017-12-22T23:43:30.672Z,100.00
2017-12-22T23:45:56.825Z,100.00
2017-12-22T23:48:22.935Z,100.00
2017-12-22T23:50:48.973Z,100.00
2017-12-22T23:53:15.185Z,100.00
2017-12-22T23:55:41.241Z,100.00
2017-12-22T23:58:07.259Z,100.00
